Time;durP1;ratioP1;P1;durP2;ratioP2;P2;SDS_P1;SDS_P2;PMS_P1;PMS_P2;Temp;Humidity;BMP_temperature;BMP_pressure;BME280_temperature;BME280_humidity;BME280_pressure;Samples;Min_cycle;Max_cycle;Signal;HPM_P1;HPM_P2
2021/10/25 00:00:14;;;;;;;13.60;7.10;;;;;;;5.65;96.47;101946.81;5094243;28;20019;-36
2021/10/25 00:02:39;;;;;;;13.20;8.27;;;;;;;5.64;96.82;101947.81;5094532;28;20062;-36
2021/10/25 00:05:05;;;;;;;11.60;7.50;;;;;;;5.64;96.60;101946.97;5075833;28;20034;-36
2021/10/25 00:07:30;;;;;;;8.70;7.22;;;;;;;5.61;96.67;101952.69;5094421;28;20494;-36
2021/10/25 00:09:56;;;;;;;8.50;7.03;;;;;;;5.61;96.78;101941.94;5094657;28;20051;-36
2021/10/25 00:12:21;;;;;;;10.57;7.90;;;;;;;5.70;97.50;101948.97;5094307;28;20063;-36
2021/10/25 00:14:46;;;;;;;9.67;6.97;;;;;;;5.63;96.53;101950.69;5094371;28;20031;-36
2021/10/25 00:17:11;;;;;;;12.57;8.00;;;;;;;5.64;97.20;101946.97;5094771;28;20016;-36
2021/10/25 00:19:37;;;;;;;13.03;7.27;;;;;;;5.65;97.38;101937.91;5094686;28;20019;-36
2021/10/25 00:22:03;;;;;;;10.87;7.87;;;;;;;5.68;97.82;101948.31;5093718;28;20451;-36
2021/10/25 00:24:28;;;;;;;9.90;7.03;;;;;;;5.72;97.81;101938.91;5093956;28;20052;-36
2021/10/25 00:26:54;;;;;;;10.43;7.33;;;;;;;5.65;97.40;101932.53;5094368;28;20058;-36
2021/10/25 00:29:20;;;;;;;12.00;7.45;;;;;;;5.63;97.01;101921.16;5093896;28;20024;-36
2021/10/25 00:31:45;;;;;;;9.87;6.90;;;;;;;5.74;96.58;101939.56;5094026;28;20078;-36
2021/10/25 00:34:11;;;;;;;9.63;7.43;;;;;;;5.79;97.86;101928.31;5094186;28;20106;-36
2021/10/25 00:36:37;;;;;;;13.35;7.60;;;;;;;5.82;98.20;101950.28;5093557;28;20016;-36
2021/10/25 00:39:04;;;;;;;10.18;7.68;;;;;;;5.83;97.66;101946.59;5093903;28;20070;-36
2021/10/25 00:41:30;;;;;;;10.25;7.22;;;;;;;5.73;97.02;101931.69;5094016;28;20502;-36
2021/10/25 00:43:55;;;;;;;11.32;7.45;;;;;;;5.81;97.06;101948.63;5093895;28;20094;-36
2021/10/25 00:46:21;;;;;;;12.90;7.93;;;;;;;5.80;97.66;101936.19;5093745;28;20102;-36
2021/10/25 00:48:46;;;;;;;15.70;8.50;;;;;;;5.76;98.00;101929.53;5093981;28;20063;-36
2021/10/25 00:51:12;;;;;;;13.33;7.67;;;;;;;5.83;97.71;101938.53;5075205;28;20035;-36
2021/10/25 00:53:38;;;;;;;13.02;7.97;;;;;;;5.80;96.92;101929.97;5093240;28;20385;-36
2021/10/25 00:56:04;;;;;;;;;;;;;;;5.89;97.61;101928.94;5094113;28;20027;-36
2021/10/25 00:58:30;;;;;;;17.35;7.82;;;;;;;5.82;97.38;101928.81;5094359;28;19932;-36
2021/10/25 01:00:55;;;;;;;13.70;7.97;;;;;;;5.82;97.06;101936.88;5093581;28;20112;-36
2021/10/25 01:03:21;;;;;;;14.87;7.47;;;;;;;5.85;98.03;101932.97;5093727;28;20020;-36
2021/10/25 01:05:47;;;;;;;;;;;;;;;5.88;97.11;101928.13;5094064;28;20049;-36
2021/10/25 01:08:13;;;;;;;10.73;7.32;;;;;;;5.84;97.69;101918.72;5094042;28;19908;-36
2021/10/25 01:10:38;;;;;;;9.23;6.85;;;;;;;5.83;97.93;101903.63;5093624;28;20501;-36
2021/10/25 01:13:04;;;;;;;11.53;7.30;;;;;;;5.96;97.29;101931.81;5093151;28;20024;-36
2021/10/25 01:15:29;;;;;;;11.45;7.47;;;;;;;5.97;97.88;101931.66;5093312;28;20028;-36
2021/10/25 01:17:57;;;;;;;9.45;6.78;;;;;;;6.02;97.42;101931.13;5093392;28;20470;-36
2021/10/25 01:20:24;;;;;;;10.30;7.38;;;;;;;5.86;97.45;101899.78;5093181;28;20147;-36
2021/10/25 01:22:50;;;;;;;12.60;7.07;;;;;;;5.81;97.82;101884.19;5093890;28;20028;-36
2021/10/25 01:25:16;;;;;;;9.85;7.28;;;;;;;6.08;97.02;101922.38;5093139;28;20020;-36
2021/10/25 01:27:42;;;;;;;11.73;7.55;;;;;;;6.12;97.78;101921.84;5093244;28;20421;-36
2021/10/25 01:30:07;;;;;;;9.43;6.18;;;;;;;6.15;98.05;101918.81;5093150;28;20023;-36
2021/10/25 01:32:33;;;;;;;9.10;7.20;;;;;;;6.22;97.21;101913.56;5094073;28;20061;-36
2021/10/25 01:34:59;;;;;;;9.45;6.60;;;;;;;6.25;96.92;101912.38;5093105;28;20188;-36
2021/10/25 01:37:24;;;;;;;10.53;6.87;;;;;;;6.26;97.53;101909.53;5093468;28;20027;-36
2021/10/25 01:39:49;;;;;;;10.63;6.97;;;;;;;6.22;96.89;101897.44;5093162;28;20106;-36
2021/10/25 01:42:15;;;;;;;9.33;6.50;;;;;;;6.33;97.49;101915.00;5093654;28;20028;-36
2021/10/25 01:44:40;;;;;;;11.02;7.13;;;;;;;6.29;97.01;101897.56;5093008;28;20020;-36
2021/10/25 01:47:06;;;;;;;10.27;6.53;;;;;;;6.40;96.93;101914.13;5093040;28;20132;-36
2021/10/25 01:49:31;;;;;;;10.17;6.53;;;;;;;6.45;96.96;101903.69;5093078;28;20020;-36
2021/10/25 01:51:57;;;;;;;13.20;7.23;;;;;;;6.37;96.56;101895.69;5093368;28;20075;-36
2021/10/25 01:54:22;;;;;;;10.90;6.95;;;;;;;6.48;96.81;101902.47;5092943;28;20036;-36
2021/10/25 01:56:48;;;;;;;11.53;7.07;;;;;;;6.54;97.30;101906.31;5093166;28;20356;-36
2021/10/25 01:59:14;;;;;;;8.80;6.50;;;;;;;6.57;96.98;101893.34;5092943;28;20046;-36
2021/10/25 02:01:39;;;;;;;11.10;6.80;;;;;;;6.60;96.43;101906.44;5093031;28;20110;-36
2021/10/25 02:04:06;;;;;;;10.73;6.43;;;;;;;6.64;96.61;101897.00;5093321;28;20077;-36
2021/10/25 02:06:32;;;;;;;12.63;6.80;;;;;;;6.53;95.98;101877.75;5095704;28;20047;-36
2021/10/25 02:08:58;;;;;;;13.23;7.22;;;;;;;6.67;96.39;101901.19;5096978;28;20158;-36
2021/10/25 02:11:23;;;;;;;13.43;6.80;;;;;;;6.67;96.76;101898.50;5096721;28;20110;-36
2021/10/25 02:13:49;;;;;;;9.43;5.67;;;;;;;6.63;95.89;101889.09;5096870;28;20087;-36
2021/10/25 02:16:15;;;;;;;9.70;6.27;;;;;;;6.63;95.37;101881.03;5097157;28;20020;-36
2021/10/25 02:18:40;;;;;;;11.23;6.38;;;;;;;6.73;96.26;101889.69;5096416;28;20027;-36
2021/10/25 02:21:06;;;;;;;10.60;6.20;;;;;;;6.75;95.95;101879.63;5096144;28;20449;-36
2021/10/25 02:23:32;;;;;;;9.52;6.50;;;;;;;6.70;96.07;101874.78;5096690;28;20047;-36
2021/10/25 02:25:57;;;;;;;7.90;6.10;;;;;;;6.78;96.10;101881.94;5096277;28;20020;-36
2021/10/25 02:28:22;;;;;;;15.10;6.97;;;;;;;6.71;95.77;101873.75;5096148;28;20421;-36
2021/10/25 02:30:49;;;;;;;14.40;6.83;;;;;;;6.73;96.11;101870.88;5096311;28;20020;-36
2021/10/25 02:33:14;;;;;;;;;;;;;;;6.86;96.22;101881.03;5097193;28;20020;-36
2021/10/25 02:35:40;;;;;;;10.07;6.25;;;;;;;6.83;95.74;101874.19;5096040;28;20343;-36
2021/10/25 02:38:05;;;;;;;11.05;6.32;;;;;;;6.75;95.61;101854.59;5096417;28;20448;-36
2021/10/25 02:40:31;;;;;;;13.77;6.80;;;;;;;6.86;95.57;101867.59;5096056;28;20062;-36
2021/10/25 02:42:56;;;;;;;14.10;6.45;;;;;;;6.84;95.46;101858.88;5096422;28;20403;-36
2021/10/25 02:45:23;;;;;;;9.68;6.25;;;;;;;6.89;95.33;101867.25;5095940;28;20030;-36
2021/10/25 02:47:49;;;;;;;10.90;6.30;;;;;;;6.90;95.79;101864.38;5095832;28;20519;-36
2021/10/25 02:50:14;;;;;;;9.73;5.80;;;;;;;6.93;95.54;101861.31;5095904;28;20103;-36
2021/10/25 02:52:40;;;;;;;7.30;5.63;;;;;;;6.84;95.61;101842.75;5096180;28;20414;-36
2021/10/25 02:55:06;;;;;;;12.80;6.07;;;;;;;6.95;94.98;101867.34;5095481;28;20380;-36
2021/10/25 02:57:32;;;;;;;8.18;5.97;;;;;;;6.96;95.60;101860.09;5096576;28;20028;-36
2021/10/25 02:59:57;;;;;;;8.33;5.63;;;;;;;6.96;95.07;101854.72;5095624;28;20074;-36
2021/10/25 03:02:23;;;;;;;9.87;6.03;;;;;;;6.99;95.56;101857.06;5096255;28;20250;-36
2021/10/25 03:04:48;;;;;;;8.80;5.80;;;;;;;7.00;95.90;101852.50;5095505;28;20020;-36
2021/10/25 03:07:14;;;;;;;9.07;5.65;;;;;;;6.90;95.59;101839.31;5096068;28;20024;-36
2021/10/25 03:09:40;;;;;;;9.20;5.37;;;;;;;7.02;95.69;101850.47;5095526;28;20049;-36
2021/10/25 03:12:05;;;;;;;9.23;5.65;;;;;;;7.06;95.86;101851.78;5095788;28;20067;-36
2021/10/25 03:14:31;;;;;;;15.98;6.47;;;;;;;7.06;96.00;101857.16;5095437;28;20028;-36
2021/10/25 03:16:56;;;;;;;7.70;5.43;;;;;;;7.07;95.52;101856.97;5095657;28;20024;-36
2021/10/25 03:19:23;;;;;;;12.93;5.77;;;;;;;7.09;95.89;101854.13;5095712;28;20024;-36
2021/10/25 03:21:49;;;;;;;11.95;5.88;;;;;;;7.09;96.30;101848.72;5095717;28;20118;-36
2021/10/25 03:24:14;;;;;;;8.47;5.77;;;;;;;6.95;95.83;101815.41;5095171;28;20429;-37
2021/10/25 03:26:40;;;;;;;9.52;5.78;;;;;;;7.14;95.61;101849.00;5094996;28;20472;-36
2021/10/25 03:29:05;;;;;;;9.87;6.30;;;;;;;7.04;95.86;101821.56;5094855;28;20032;-36
2021/10/25 03:31:30;;;;;;;9.43;6.73;;;;;;;7.12;96.58;101838.41;5095661;28;20429;-36
2021/10/25 03:33:56;;;;;;;9.17;6.07;;;;;;;7.01;96.06;101811.16;5095297;28;20028;-36
2021/10/25 03:36:25;;;;;;;12.00;5.60;;;;;;;7.18;95.77;101847.63;5095331;28;20090;-36
2021/10/25 03:38:51;;;;;;;11.02;6.78;;;;;;;7.11;96.11;101825.16;5094874;28;20073;-36
2021/10/25 03:41:21;;;;;;;7.75;5.57;;;;;;;7.20;95.70;101840.19;5094668;28;20028;-36
2021/10/25 03:43:55;;;;;;;9.98;6.72;;;;;;;7.22;95.22;101841.69;5095021;28;20024;-36
2021/10/25 03:46:40;;;;;;;10.73;6.38;;;;;;;7.26;95.10;101836.75;5094506;28;20085;-36
2021/10/25 03:51:42;;;;;;;11.13;6.00;;;;;;;7.32;95.27;101833.34;5095079;28;20028;-36
2021/10/25 03:56:54;;;;;;;9.23;6.00;;;;;;;7.32;95.04;101838.75;5094723;28;20410;-36
2021/10/25 04:28:41;;;;;;;9.80;4.77;;;;;;;7.51;95.24;101839.19;5011497;28;20037;-36
2021/10/25 04:31:07;;;;;;;10.52;5.60;;;;;;;7.42;95.59;101825.84;5011937;28;20196;-36
2021/10/25 04:33:33;;;;;;;11.98;5.38;;;;;;;7.53;94.80;101837.16;5012260;28;20034;-36
2021/10/25 04:35:59;;;;;;;9.07;4.90;;;;;;;7.53;94.71;101842.53;5011690;28;20042;-36
2021/10/25 04:38:24;;;;;;;8.13;4.90;;;;;;;7.45;95.37;101814.69;5044795;28;20089;-36
2021/10/25 04:40:50;;;;;;;6.97;5.10;;;;;;;7.56;94.96;101836.75;5093823;28;20032;-36
2021/10/25 04:43:16;;;;;;;8.82;5.13;;;;;;;7.33;95.01;101793.84;5094345;28;20016;-36
2021/10/25 04:45:44;;;;;;;9.18;5.10;;;;;;;7.57;95.05;101827.69;5093973;28;20046;-36
2021/10/25 04:48:10;;;;;;;9.13;5.20;;;;;;;7.59;94.98;101829.16;5093845;28;20023;-36
2021/10/25 04:50:35;;;;;;;10.32;5.00;;;;;;;7.61;94.45;101834.34;5094239;28;20425;-36
2021/10/25 04:53:01;;;;;;;14.73;6.55;;;;;;;7.63;94.60;101835.84;5093747;28;20148;-36
2021/10/25 04:55:26;;;;;;;8.23;5.20;;;;;;;7.64;94.11;101831.28;5093656;28;20036;-36
2021/10/25 04:57:51;;;;;;;8.97;5.40;;;;;;;7.64;95.00;101829.44;5093931;28;20020;-36
2021/10/25 05:00:17;;;;;;;6.97;4.87;;;;;;;7.64;94.46;101828.59;5093581;28;20053;-36
2021/10/25 05:02:42;;;;;;;7.90;4.97;;;;;;;7.65;94.39;101827.56;5094026;28;20075;-36
2021/10/25 05:05:09;;;;;;;9.05;4.75;;;;;;;7.65;95.27;101825.69;5093940;28;20016;-36
2021/10/25 05:07:34;;;;;;;;;;;;;;;7.69;94.19;101810.00;5094124;28;20164;-36
2021/10/25 05:10:02;;;;;;;10.73;5.15;;;;;;;7.68;94.51;101808.34;5093783;28;19917;-36
2021/10/25 05:12:28;;;;;;;8.18;5.20;;;;;;;7.61;94.73;101794.81;5093855;28;20032;-36
2021/10/25 05:14:53;;;;;;;8.77;4.88;;;;;;;7.71;94.51;101814.22;5093395;28;20106;-36
2021/10/25 05:17:19;;;;;;;8.33;4.90;;;;;;;7.73;94.49;101806.75;5093904;28;20024;-36
2021/10/25 05:19:44;;;;;;;8.23;4.67;;;;;;;7.73;94.50;101805.94;5093268;28;20488;-36
2021/10/25 05:22:10;;;;;;;8.37;5.07;;;;;;;7.74;93.96;101802.22;5093341;28;20038;-36
2021/10/25 05:24:36;;;;;;;9.18;5.30;;;;;;;7.77;93.98;101807.22;5093710;28;20027;-36
2021/10/25 05:27:01;;;;;;;7.10;4.60;;;;;;;7.78;93.42;101803.50;5093529;28;20056;-36
2021/10/25 05:29:27;;;;;;;8.75;4.70;;;;;;;7.79;94.23;101802.47;5093230;28;20527;-36
2021/10/25 05:31:52;;;;;;;8.13;5.47;;;;;;;7.78;93.66;101800.81;5093432;28;20024;-36
2021/10/25 05:34:17;;;;;;;9.97;5.03;;;;;;;7.71;93.68;101787.28;5093727;28;20372;-36
2021/10/25 05:36:43;;;;;;;9.07;4.93;;;;;;;7.80;93.83;101806.81;5093204;28;20031;-36
2021/10/25 05:39:10;;;;;;;9.63;5.00;;;;;;;7.80;93.84;101800.59;5093791;28;20028;-36
2021/10/25 05:41:39;;;;;;;9.60;4.38;;;;;;;7.80;93.14;101803.31;5097800;28;20024;-36
2021/10/25 05:44:04;;;;;;;8.73;4.28;;;;;;;7.80;93.59;101795.22;5097068;28;20020;-36
2021/10/25 05:46:30;;;;;;;8.77;5.00;;;;;;;7.78;93.83;101798.13;5097475;28;20023;-36
2021/10/25 05:48:57;;;;;;;9.50;4.90;;;;;;;7.79;93.40;101793.56;5096785;28;20082;-36
2021/10/25 05:51:23;;;;;;;7.43;4.72;;;;;;;7.74;93.89;101786.06;5097502;28;20020;-36
2021/10/25 05:53:48;;;;;;;8.27;4.43;;;;;;;7.64;93.39;101769.38;5097037;28;20368;-36
2021/10/25 05:56:14;;;;;;;7.53;4.40;;;;;;;7.77;93.45;101790.25;5097782;28;20025;-36
2021/10/25 05:58:39;;;;;;;10.85;4.88;;;;;;;7.76;94.23;101786.72;5097160;28;20427;-36
2021/10/25 06:01:11;;;;;;;7.50;4.30;;;;;;;7.67;93.92;101774.38;5096604;28;20051;-36
2021/10/25 06:03:38;;;;;;;10.77;4.50;;;;;;;7.78;94.02;101781.13;5097048;28;20012;-36
2021/10/25 06:06:03;;;;;;;10.05;4.57;;;;;;;7.80;94.04;101787.16;5096685;28;20360;-36
2021/10/25 06:08:29;;;;;;;6.77;4.23;;;;;;;7.79;93.74;101789.00;5096752;28;20024;-36
2021/10/25 06:10:54;;;;;;;9.63;5.07;;;;;;;7.82;94.40;101782.44;5096602;28;20405;-36
2021/10/25 06:13:43;;;;;;;8.90;4.50;;;;;;;7.83;94.20;101789.47;5097199;28;20249;-36
2021/10/25 06:16:14;;;;;;;6.93;4.40;;;;;;;7.83;93.62;101784.91;5096529;28;20127;-36
2021/10/25 06:18:41;;;;;;;9.05;4.30;;;;;;;7.85;93.40;101793.63;5096741;28;20032;-36
2021/10/25 06:21:07;;;;;;;8.82;4.50;;;;;;;7.86;93.97;101797.19;5096685;28;20139;-36
2021/10/25 06:23:33;;;;;;;6.38;4.43;;;;;;;7.89;93.92;101796.78;5096705;28;20398;-36
2021/10/25 06:26:00;;;;;;;7.90;4.25;;;;;;;7.63;94.02;101746.16;5096228;28;20075;-36
2021/10/25 06:28:26;;;;;;;9.80;4.35;;;;;;;7.90;94.18;101798.44;5097040;28;20051;-36
2021/10/25 06:31:06;;;;;;;7.32;4.38;;;;;;;7.83;93.53;101782.22;5096198;28;20075;-36
2021/10/25 06:33:44;;;;;;;7.95;4.07;;;;;;;7.88;94.06;101792.44;5096966;28;20024;-36
2021/10/25 06:36:10;;;;;;;7.88;4.45;;;;;;;7.93;93.06;101795.38;5096369;28;20024;-36
2021/10/25 06:38:43;;;;;;;;;;;;;;;8.02;93.65;101801.50;5096883;28;20020;-36
2021/10/25 06:41:09;;;;;;;11.00;5.03;;;;;;;7.89;93.59;101781.47;5096006;28;19904;-36
2021/10/25 06:43:34;;;;;;;7.17;3.97;;;;;;;7.92;93.01;101782.94;5096366;28;20119;-36
2021/10/25 06:46:00;;;;;;;8.52;4.60;;;;;;;8.04;93.57;101799.44;5096086;28;20024;-36
2021/10/25 06:48:28;;;;;;;7.22;4.40;;;;;;;8.06;93.34;101800.09;5096220;28;20349;-36
2021/10/25 06:50:53;;;;;;;8.30;4.13;;;;;;;7.98;92.56;101787.56;5095819;28;20111;-36
2021/10/25 06:53:19;;;;;;;7.90;4.28;;;;;;;8.12;92.74;101802.03;5096618;28;20111;-36
2021/10/25 06:55:45;;;;;;;7.68;4.47;;;;;;;8.15;92.65;101810.56;5095684;28;20031;-36
2021/10/25 06:58:11;;;;;;;7.45;4.40;;;;;;;8.20;92.60;101804.59;5096543;28;20027;-36
2021/10/25 07:00:36;;;;;;;9.95;4.25;;;;;;;8.24;92.11;101797.78;5096390;28;20317;-36
2021/10/25 07:03:02;;;;;;;10.63;4.72;;;;;;;8.29;92.63;101803.41;5096454;28;20024;-36
2021/10/25 07:05:35;;;;;;;9.00;4.45;;;;;;;8.32;92.40;101797.66;5095162;28;20049;-36
2021/10/25 07:08:02;;;;;;;7.45;4.38;;;;;;;8.41;91.51;101812.72;5096271;28;20020;-36
2021/10/25 07:10:27;;;;;;;;;;;;;;;8.47;92.36;101801.13;5096521;28;20322;-36
2021/10/25 07:12:54;;;;;;;8.68;3.70;;;;;;;8.48;91.14;101810.06;5095758;28;19904;-36
2021/10/25 07:15:20;;;;;;;7.50;4.35;;;;;;;8.50;91.46;101808.84;5095609;28;20031;-36
2021/10/25 07:20:27;;;;;;;8.18;4.75;;;;;;;8.47;91.19;101793.06;5095495;28;20032;-36
2021/10/25 08:11:03;;;;;;;7.38;3.92;;;;;;;8.92;89.95;101803.56;5094566;28;20089;-36
2021/10/25 08:13:35;;;;;;;9.30;4.05;;;;;;;9.03;90.33;101825.47;5094713;28;20027;-36
2021/10/25 08:16:13;;;;;;;7.65;4.45;;;;;;;9.05;90.56;101816.34;5094623;28;20020;-36
2021/10/25 08:21:05;;;;;;;8.82;4.03;;;;;;;9.12;90.42;101822.59;5093855;28;20051;-36
2021/10/25 08:23:30;;;;;;;9.17;3.90;;;;;;;9.15;90.18;101823.03;5094227;28;20384;-36
2021/10/25 08:25:55;;;;;;;10.10;4.23;;;;;;;9.17;90.62;101820.13;5093941;28;20420;-36
2021/10/25 08:28:21;;;;;;;7.10;4.20;;;;;;;9.23;91.06;101822.06;5093634;28;20016;-36
2021/10/25 08:30:48;;;;;;;6.23;4.27;;;;;;;9.25;90.59;101815.41;5094208;28;20035;-37
2021/10/25 08:33:30;;;;;;;6.68;4.18;;;;;;;9.31;89.98;101819.19;5094145;28;20356;-36
2021/10/25 08:36:11;;;;;;;7.85;5.00;;;;;;;9.22;90.22;101796.06;5094080;28;20024;-36
2021/10/25 08:41:24;;;;;;;9.55;4.18;;;;;;;9.43;89.24;101819.47;5093732;28;20075;-36
2021/10/25 08:43:52;;;;;;;8.93;4.45;;;;;;;9.43;89.37;101814.91;5094085;28;20069;-36
2021/10/25 08:46:18;;;;;;;7.90;4.28;;;;;;;9.47;89.58;101816.19;5093294;28;20103;-36
2021/10/25 08:48:45;;;;;;;10.75;4.30;;;;;;;9.49;89.15;101816.78;5093620;28;20115;-36
2021/10/25 08:51:11;;;;;;;13.77;8.77;;;;;;;9.51;89.51;101811.19;5093830;28;20099;-36
2021/10/25 08:53:36;;;;;;;;;;;;;;;9.58;89.32;101817.47;5094043;28;20380;-36
2021/10/25 08:56:03;;;;;;;9.30;5.10;;;;;;;9.54;89.23;101810.81;5093700;28;19904;-36
2021/10/25 08:58:29;;;;;;;6.72;4.35;;;;;;;9.60;88.86;101812.69;5093579;28;20269;-36
2021/10/25 09:00:55;;;;;;;6.90;3.92;;;;;;;9.58;88.58;101811.25;5093507;28;20098;-36
2021/10/25 09:03:21;;;;;;;7.38;4.82;;;;;;;9.60;89.29;101815.38;5093709;28;20409;-36
2021/10/25 09:05:54;;;;;;;;;;;;;;;9.65;89.73;101804.81;5093666;28;20027;-36
2021/10/25 09:08:20;;;;;;;8.60;5.85;;;;;;;9.65;89.15;101814.78;5093578;28;19962;-36
2021/10/25 09:10:46;;;;;;;9.40;5.40;;;;;;;9.66;88.78;101809.22;5093601;28;20023;-36
2021/10/25 09:13:16;;;;;;;9.82;4.85;;;;;;;9.71;88.95;101811.28;5093380;28;20016;-36
2021/10/25 09:15:50;;;;;;;6.88;4.68;;;;;;;9.61;89.18;101786.50;5093253;28;20024;-36
2021/10/25 09:18:26;;;;;;;8.20;5.25;;;;;;;9.82;88.91;101809.88;5093217;28;20527;-36
2021/10/25 09:20:55;;;;;;;13.35;5.13;;;;;;;9.83;88.68;101806.97;5093906;28;20044;-36
2021/10/25 09:23:26;;;;;;;10.07;5.45;;;;;;;9.86;88.10;101806.56;5093958;28;20016;-36
2021/10/25 09:25:57;;;;;;;9.57;4.53;;;;;;;9.90;87.94;101804.28;5093169;28;20019;-36
2021/10/25 09:28:26;;;;;;;9.15;4.30;;;;;;;9.94;88.53;101800.97;5093953;28;20094;-36
2021/10/25 09:30:56;;;;;;;8.20;4.32;;;;;;;10.05;88.30;101796.84;5093573;28;20024;-36
2021/10/25 09:33:22;;;;;;;8.13;4.00;;;;;;;10.12;88.80;101808.50;5093165;28;20099;-36
2021/10/25 09:36:00;;;;;;;8.18;4.97;;;;;;;10.21;88.41;101798.34;5093013;28;20063;-36
2021/10/25 09:49:33;;;;;;;8.60;4.47;;;;;;;10.57;86.94;101801.53;5093010;28;20054;-36
2021/10/25 09:52:01;;;;;;;8.80;4.75;;;;;;;10.61;86.88;101801.13;5092948;28;20087;-36
2021/10/25 09:54:28;;;;;;;9.02;4.35;;;;;;;10.60;87.97;101799.47;5092993;28;20096;-36
2021/10/25 09:57:07;;;;;;;7.55;4.32;;;;;;;10.56;87.26;101801.75;5093189;28;20097;-36
2021/10/25 09:59:49;;;;;;;9.75;5.53;;;;;;;10.56;87.88;101794.47;5092766;28;20396;-36
2021/10/25 10:02:15;;;;;;;6.80;4.20;;;;;;;10.57;87.52;101784.47;5093426;28;20031;-36
2021/10/25 10:04:45;;;;;;;9.35;4.97;;;;;;;10.52;87.44;101766.16;5092727;28;20020;-36
2021/10/25 10:07:16;;;;;;;10.65;4.40;;;;;;;10.68;87.25;101777.59;5093538;28;20052;-36
2021/10/25 10:09:44;;;;;;;6.30;5.07;;;;;;;10.80;87.21;101787.59;5092764;28;20020;-36
2021/10/25 10:12:17;;;;;;;8.32;4.43;;;;;;;10.94;87.03;101779.47;5092961;28;20103;-36
2021/10/25 10:14:49;;;;;;;11.43;4.55;;;;;;;11.04;86.43;101780.69;5092639;28;20125;-36
2021/10/25 10:17:18;;;;;;;7.45;4.20;;;;;;;11.08;86.50;101798.16;5092499;28;20020;-36
2021/10/25 10:19:44;;;;;;;7.47;3.90;;;;;;;11.02;86.46;101781.94;5093307;28;20020;-36
2021/10/25 10:22:11;;;;;;;7.75;4.60;;;;;;;11.03;86.21;101770.09;5093144;28;20368;-36
2021/10/25 10:24:37;;;;;;;8.25;4.53;;;;;;;11.19;86.72;101782.31;5092732;28;20440;-36
2021/10/25 10:27:07;;;;;;;15.63;4.57;;;;;;;11.25;86.33;101793.13;5095145;28;20081;-36
2021/10/25 10:29:41;;;;;;;9.32;4.75;;;;;;;11.26;86.15;101781.25;5096441;28;20066;-36
2021/10/25 10:32:12;;;;;;;7.93;4.90;;;;;;;11.12;86.00;101757.94;5097044;28;20052;-36
2021/10/25 10:34:43;;;;;;;11.20;4.75;;;;;;;11.26;85.73;101777.72;5096165;28;20521;-36
2021/10/25 10:37:18;;;;;;;7.05;4.15;;;;;;;11.16;86.21;101771.91;5096467;28;20074;-37
2021/10/25 10:39:56;;;;;;;14.38;5.82;;;;;;;11.29;86.00;101788.94;5096923;28;20035;-36
2021/10/25 10:42:26;;;;;;;8.07;4.50;;;;;;;11.16;86.82;101766.50;5096045;28;20032;-36
2021/10/25 10:45:01;;;;;;;9.05;4.40;;;;;;;11.35;87.03;101789.97;5095577;28;20049;-37
2021/10/25 10:47:31;;;;;;;6.50;4.03;;;;;;;11.38;86.47;101792.25;5095984;28;20107;-36
2021/10/25 10:49:58;;;;;;;8.13;4.18;;;;;;;11.42;85.95;101792.66;5096155;28;20024;-36
2021/10/25 11:00:30;;;;;;;7.60;4.25;;;;;;;11.48;86.79;101784.53;5096427;28;20032;-36
2021/10/25 11:02:59;;;;;;;10.75;4.45;;;;;;;11.51;87.09;101788.66;5096427;28;20164;-36
2021/10/25 11:05:31;;;;;;;8.45;4.95;;;;;;;11.45;86.95;101781.41;5095674;28;20024;-36
2021/10/25 11:08:09;;;;;;;7.03;4.25;;;;;;;11.46;86.72;101774.94;5096027;28;20051;-36
2021/10/25 11:10:40;;;;;;;6.80;3.90;;;;;;;11.55;87.08;101788.03;5095278;28;20050;-36
2021/10/25 11:13:23;;;;;;;10.27;5.05;;;;;;;11.59;86.51;101777.59;5095644;28;20024;-36
2021/10/25 11:16:13;;;;;;;6.57;4.47;;;;;;;11.70;86.51;101779.63;5095980;28;20107;-36
2021/10/25 11:18:42;;;;;;;10.15;5.05;;;;;;;11.78;86.96;101779.38;5096054;28;20024;-36
2021/10/25 11:21:18;;;;;;;7.10;4.65;;;;;;;11.82;86.46;101777.13;5095434;28;20056;-36
2021/10/25 11:23:52;;;;;;;7.70;4.95;;;;;;;11.84;87.05;101773.13;5095276;28;20027;-36
2021/10/25 11:26:23;;;;;;;7.05;4.55;;;;;;;11.90;86.53;101767.88;5095282;28;20118;-36
2021/10/25 11:28:57;;;;;;;7.80;4.50;;;;;;;11.97;86.73;101764.09;5095962;28;20024;-36
2021/10/25 11:31:23;;;;;;;9.25;5.00;;;;;;;11.98;85.98;101771.16;5095372;28;20035;-36
2021/10/25 11:33:49;;;;;;;8.77;4.68;;;;;;;11.92;85.77;101755.78;5077549;28;20349;-37
2021/10/25 11:36:16;;;;;;;9.57;4.63;;;;;;;11.85;86.00;101741.44;5110338;28;20032;-36
2021/10/25 11:38:44;;;;;;;7.13;4.88;;;;;;;11.88;86.23;101742.88;5095293;28;20459;-36
2021/10/25 11:41:10;;;;;;;7.57;4.53;;;;;;;12.02;86.14;101756.13;5095563;28;20024;-36
2021/10/25 11:43:36;;;;;;;10.32;5.13;;;;;;;12.05;86.33;101757.56;5094554;28;20055;-36
2021/10/25 11:46:13;;;;;;;8.67;5.23;;;;;;;12.14;87.00;101756.25;5095231;28;20020;-36
2021/10/25 11:48:38;;;;;;;8.68;4.75;;;;;;;12.24;85.83;101747.63;5095086;28;20412;-36
2021/10/25 11:51:06;;;;;;;7.33;4.77;;;;;;;12.33;85.99;101738.19;5095010;28;20020;-36
2021/10/25 11:53:32;;;;;;;7.03;4.50;;;;;;;12.42;85.93;101738.75;5094591;28;20046;-36
2021/10/25 11:55:58;;;;;;;5.97;4.20;;;;;;;12.57;86.19;101744.66;5094553;28;20031;-36
2021/10/25 11:58:29;;;;;;;7.25;4.50;;;;;;;12.57;85.32;101720.25;5094253;28;20019;-36
2021/10/25 12:01:02;;;;;;;9.57;4.35;;;;;;;12.88;84.04;101743.72;5094720;28;20444;-36
2021/10/25 12:03:27;;;;;;;7.68;4.90;;;;;;;13.05;83.76;101733.94;5094468;28;20020;-36
2021/10/25 12:05:54;;;;;;;9.20;4.37;;;;;;;13.18;82.47;101733.00;5094126;28;20016;-36
2021/10/25 12:08:20;;;;;;;7.18;4.25;;;;;;;13.15;81.38;101725.28;5095153;28;20304;-36
2021/10/25 12:10:48;;;;;;;8.60;4.93;;;;;;;13.18;81.90;101722.13;5094921;28;20353;-36
2021/10/25 12:13:15;;;;;;;9.75;4.55;;;;;;;13.09;82.50;101718.88;5109868;28;20028;-36
2021/10/25 12:15:54;;;;;;;10.00;4.15;;;;;;;13.06;82.07;101718.50;5094250;28;20136;-36
2021/10/25 12:18:21;;;;;;;6.80;4.50;;;;;;;12.98;82.45;101719.63;5094504;28;20023;-36
2021/10/25 12:20:48;;;;;;;7.63;4.47;;;;;;;12.84;81.93;101708.09;5093799;28;20123;-36
2021/10/25 12:23:16;;;;;;;6.53;4.63;;;;;;;12.96;82.57;101718.19;5094437;28;20016;-36
2021/10/25 12:25:45;;;;;;;6.13;4.32;;;;;;;13.12;82.22;101704.81;5093784;28;20051;-36
2021/10/25 12:28:20;;;;;;;7.35;4.35;;;;;;;13.34;81.41;101713.38;5094297;28;20368;-36
2021/10/25 12:30:51;;;;;;;8.30;4.72;;;;;;;13.28;80.80;101716.19;5094462;28;20020;-36
2021/10/25 12:33:23;;;;;;;7.32;4.60;;;;;;;13.37;81.59;101714.78;5094415;28;20404;-36
2021/10/25 12:35:50;;;;;;;7.50;4.47;;;;;;;13.50;80.95;101724.69;5093891;28;20016;-36
2021/10/25 12:38:17;;;;;;;7.47;4.60;;;;;;;13.66;81.48;101715.88;5093624;28;20016;-36
2021/10/25 12:40:49;;;;;;;6.93;4.07;;;;;;;13.71;79.61;101723.34;5093816;28;20028;-36
2021/10/25 12:43:16;;;;;;;5.05;3.65;;;;;;;13.73;78.94;101719.34;5093931;28;20027;-36
2021/10/25 12:45:44;;;;;;;8.52;4.05;;;;;;;13.64;78.61;101705.25;5093690;28;20422;-36
2021/10/25 12:48:12;;;;;;;7.53;4.18;;;;;;;13.73;79.29;101710.38;5093989;28;20073;-36
2021/10/25 12:50:41;;;;;;;6.80;4.05;;;;;;;13.61;79.00;101702.97;5093416;28;20055;-36
2021/10/25 12:53:08;;;;;;;7.15;4.47;;;;;;;13.56;80.54;101702.00;5093917;28;20028;-36
2021/10/25 12:55:35;;;;;;;6.60;4.50;;;;;;;13.40;80.22;101696.16;5093579;28;20043;-36
2021/10/25 12:58:01;;;;;;;6.68;4.32;;;;;;;13.44;80.83;101715.56;5094280;28;20109;-36
2021/10/25 13:00:27;;;;;;;5.07;3.63;;;;;;;13.38;81.04;101717.31;5093206;28;20391;-37
2021/10/25 13:02:54;;;;;;;6.70;4.30;;;;;;;13.31;81.94;101705.69;5094248;28;20028;-36
2021/10/25 13:05:22;;;;;;;7.25;4.70;;;;;;;13.27;82.39;101712.63;5093024;28;20020;-36
2021/10/25 13:07:56;;;;;;;7.55;4.70;;;;;;;13.22;82.11;101709.75;5093389;28;20111;-36
2021/10/25 13:10:33;;;;;;;5.50;3.97;;;;;;;13.15;82.23;101709.81;5093248;28;20058;-36
2021/10/25 13:13:03;;;;;;;7.68;5.00;;;;;;;13.09;82.54;101693.59;5093747;28;20049;-36
2021/10/25 13:15:29;;;;;;;8.00;5.20;;;;;;;13.13;83.05;101701.06;5093056;28;20031;-37
2021/10/25 13:17:58;;;;;;;6.38;4.25;;;;;;;13.20;82.99;101711.03;5093458;28;20452;-36
2021/10/25 13:20:32;;;;;;;6.63;4.45;;;;;;;13.36;83.95;101705.81;5093478;28;20028;-36